Time;durP1;ratioP1;P1;durP2;ratioP2;P2;SDS_P1;SDS_P2;PMS_P1;PMS_P2;Temp;Humidity;BMP_temperature;BMP_pressure;BME280_temperature;BME280_humidity;BME280_pressure;Samples;Min_cycle;Max_cycle;Signal;HPM_P1;HPM_P2
2022/03/02 00:01:58;;;;;;;17.77;10.80;;;;;;;4.21;51.03;100918.31;4990281;28;20750;-86
2022/03/02 00:04:25;;;;;;;22.38;11.77;;;;;;;4.20;51.23;100911.34;4999031;28;20396;-84
2022/03/02 00:06:51;;;;;;;17.65;10.88;;;;;;;4.20;51.28;100907.84;5033235;28;20083;-86
2022/03/02 00:09:18;;;;;;;22.15;11.98;;;;;;;4.19;51.42;100898.25;5017605;28;20435;-86
2022/03/02 00:11:45;;;;;;;26.35;13.90;;;;;;;4.18;51.63;100894.78;5020391;28;22470;-86
2022/03/02 00:14:11;;;;;;;49.42;21.88;;;;;;;4.18;51.36;100892.16;5033653;28;20409;-86
2022/03/02 00:16:38;;;;;;;43.28;19.77;;;;;;;4.18;51.55;100896.56;5005967;28;20859;-87
2022/03/02 00:19:06;;;;;;;26.80;14.43;;;;;;;4.17;51.59;100898.31;4998058;28;20045;-86
2022/03/02 00:21:32;;;;;;;18.95;11.25;;;;;;;4.18;51.69;100889.53;5003476;28;20044;-86
2022/03/02 00:24:03;;;;;;;19.45;11.95;;;;;;;4.16;51.52;100886.13;5008021;28;20048;-86
2022/03/02 00:26:33;;;;;;;19.20;11.77;;;;;;;4.17;51.44;100886.97;5003272;28;20059;-86
2022/03/02 00:29:00;;;;;;;20.00;11.48;;;;;;;4.17;51.29;100876.44;5013144;28;20049;-86
2022/03/02 00:31:28;;;;;;;18.58;11.50;;;;;;;4.15;51.54;100876.53;4991640;28;20511;-86
2022/03/02 00:33:54;;;;;;;22.88;12.13;;;;;;;4.14;51.68;100886.16;5012308;28;20053;-86
2022/03/02 00:36:21;;;;;;;21.30;11.70;;;;;;;4.13;51.64;100887.09;5017163;28;20040;-86
2022/03/02 00:38:48;;;;;;;18.70;11.25;;;;;;;4.13;51.53;100888.88;5015535;28;20041;-86
2022/03/02 00:41:15;;;;;;;18.02;11.73;;;;;;;4.12;51.62;100888.03;4986408;28;20048;-86
2022/03/02 00:43:42;;;;;;;20.88;11.45;;;;;;;4.09;51.65;100884.69;4984921;28;20489;-86
2022/03/02 00:46:09;;;;;;;24.98;12.30;;;;;;;4.08;51.79;100893.50;5014896;28;20123;-87
2022/03/02 00:48:36;;;;;;;21.30;12.35;;;;;;;4.07;51.88;100891.78;5030463;28;20670;-86
2022/03/02 00:51:03;;;;;;;21.38;12.02;;;;;;;4.05;51.69;100889.22;4999681;28;20047;-86
2022/03/02 00:53:30;;;;;;;20.38;11.75;;;;;;;4.03;52.10;100893.69;5006366;28;20096;-86
2022/03/02 00:55:59;;;;;;;22.10;11.85;;;;;;;4.02;51.77;100888.50;5018757;28;20496;-86
2022/03/02 00:58:26;;;;;;;19.52;10.45;;;;;;;4.01;51.39;100886.78;5017070;28;20052;-87
2022/03/02 01:00:53;;;;;;;16.63;9.65;;;;;;;3.99;51.52;100886.00;5016691;28;20102;-85
2022/03/02 01:03:19;;;;;;;16.50;9.05;;;;;;;3.97;51.43;100883.47;5013508;28;20049;-86
2022/03/02 01:05:47;;;;;;;19.42;9.77;;;;;;;3.98;51.65;100876.44;5005049;28;20048;-86
2022/03/02 01:08:14;;;;;;;13.93;8.93;;;;;;;3.96;51.41;100873.84;5023138;28;20049;-85
2022/03/02 01:10:41;;;;;;;18.33;9.18;;;;;;;3.95;51.78;100866.06;5006623;28;20072;-86
2022/03/02 01:13:07;;;;;;;14.45;8.63;;;;;;;3.96;51.97;100871.22;5016482;28;20105;-86
2022/03/02 01:15:34;;;;;;;15.07;9.27;;;;;;;3.96;51.93;100865.13;5023287;28;20488;-85
2022/03/02 01:18:01;;;;;;;20.70;9.48;;;;;;;3.95;52.19;100861.66;5024079;28;20496;-86
2022/03/02 01:20:28;;;;;;;16.73;8.90;;;;;;;3.94;52.22;100862.56;5016446;28;20045;-86
2022/03/02 01:22:55;;;;;;;18.55;9.32;;;;;;;3.94;52.45;100856.44;5003718;28;20512;-87
2022/03/02 01:25:22;;;;;;;15.35;9.05;;;;;;;3.94;52.16;100859.94;5020053;28;20064;-86
2022/03/02 01:27:48;;;;;;;17.67;8.93;;;;;;;3.94;52.56;100856.44;5006402;28;20065;-85
2022/03/02 01:30:16;;;;;;;14.75;8.60;;;;;;;3.92;52.29;100846.03;5008969;28;20373;-86
2022/03/02 01:32:43;;;;;;;17.58;9.70;;;;;;;3.90;52.50;100846.09;5018269;28;20063;-86
2022/03/02 01:35:11;;;;;;;16.63;9.52;;;;;;;3.89;52.85;100839.13;5009301;28;20048;-86
2022/03/02 01:37:38;;;;;;;16.40;9.63;;;;;;;3.88;52.90;100840.03;5017750;28;20049;-86
2022/03/02 01:40:09;;;;;;;16.13;9.27;;;;;;;3.87;52.73;100838.34;5001355;28;20566;-86
2022/03/02 01:42:41;;;;;;;18.85;8.13;;;;;;;3.84;52.90;100829.72;5020348;28;20041;-86
2022/03/02 01:45:09;;;;;;;14.77;8.43;;;;;;;3.85;52.75;100816.53;4974532;28;20052;-86
2022/03/02 01:47:36;;;;;;;13.77;8.32;;;;;;;3.83;52.45;100818.38;4983142;28;20053;-86
2022/03/02 01:50:05;;;;;;;12.23;7.70;;;;;;;3.81;52.05;100811.47;5000314;28;20567;-86
2022/03/02 01:52:32;;;;;;;15.45;8.07;;;;;;;3.80;52.29;100797.50;4984670;28;20157;-86
2022/03/02 01:54:58;;;;;;;16.58;8.05;;;;;;;3.78;52.47;100793.22;4971249;28;20082;-86
2022/03/02 01:57:26;;;;;;;12.75;7.47;;;;;;;3.78;52.47;100790.59;4986419;28;20108;-86
2022/03/02 01:59:54;;;;;;;12.82;7.78;;;;;;;3.78;52.35;100786.19;4983712;28;20045;-86
2022/03/02 02:02:25;;;;;;;14.77;8.38;;;;;;;3.77;52.81;100794.16;4970896;28;20133;-84
2022/03/02 02:04:53;;;;;;;14.88;8.23;;;;;;;3.74;52.46;100779.41;4997212;28;20046;-86
2022/03/02 02:07:22;;;;;;;13.52;7.80;;;;;;;3.74;52.45;100782.03;4969059;28;20119;-86
2022/03/02 02:09:49;;;;;;;13.73;7.53;;;;;;;3.73;52.43;100779.44;4984898;28;20041;-86
2022/03/02 02:12:16;;;;;;;12.52;7.78;;;;;;;3.71;52.69;100776.88;4967960;28;20173;-86
2022/03/02 02:14:44;;;;;;;13.45;7.30;;;;;;;3.70;52.60;100769.94;4969317;28;20516;-84
2022/03/02 02:17:11;;;;;;;13.27;7.55;;;;;;;3.69;52.31;100778.75;5006665;28;20051;-86
2022/03/02 02:19:38;;;;;;;11.75;7.15;;;;;;;3.68;52.34;100774.41;5028126;28;20492;-86
2022/03/02 02:22:05;;;;;;;14.05;7.80;;;;;;;3.66;52.28;100777.13;5042250;28;20098;-86
2022/03/02 02:24:32;;;;;;;17.23;6.82;;;;;;;3.65;52.49;100774.53;5025777;28;20487;-86
2022/03/02 02:26:59;;;;;;;10.60;7.15;;;;;;;3.65;52.32;100771.91;5020896;28;20041;-85
2022/03/02 02:29:26;;;;;;;12.45;7.70;;;;;;;3.63;52.85;100774.59;5008219;28;20484;-85
2022/03/02 02:31:52;;;;;;;15.93;7.78;;;;;;;3.63;52.83;100776.38;4991019;28;20037;-86
2022/03/02 02:34:20;;;;;;;12.98;8.10;;;;;;;3.61;52.53;100779.09;5005485;28;20052;-85
2022/03/02 02:36:47;;;;;;;13.27;7.25;;;;;;;3.60;52.98;100773.91;5009882;28;20518;-85
2022/03/02 02:39:14;;;;;;;16.80;8.45;;;;;;;3.57;52.66;100781.91;5010086;28;20114;-85
2022/03/02 02:41:41;;;;;;;10.35;7.25;;;;;;;3.55;52.57;100781.97;5012898;28;20051;-85
2022/03/02 02:44:08;;;;;;;13.20;7.70;;;;;;;3.51;52.60;100783.06;5034522;28;20052;-84
2022/03/02 02:46:35;;;;;;;13.52;7.68;;;;;;;3.52;52.83;100783.91;5016813;28;20040;-86
2022/03/02 02:49:02;;;;;;;13.68;8.13;;;;;;;3.50;52.80;100781.31;5008027;28;20044;-86
2022/03/02 02:51:29;;;;;;;12.98;8.15;;;;;;;3.48;52.70;100784.00;5023513;28;20102;-85
2022/03/02 02:53:56;;;;;;;11.02;6.65;;;;;;;3.46;52.78;100783.25;5025347;28;20791;-86
2022/03/02 02:56:23;;;;;;;12.57;7.57;;;;;;;3.45;53.13;100780.66;5015356;28;20557;-86
2022/03/02 02:58:49;;;;;;;15.82;8.38;;;;;;;3.45;53.14;100778.03;5026348;28;20052;-85
2022/03/02 03:01:17;;;;;;;13.95;8.05;;;;;;;3.45;52.95;100783.31;5016861;28;20560;-86
2022/03/02 03:03:44;;;;;;;16.23;8.93;;;;;;;3.44;53.22;100778.97;5025068;28;20037;-85
2022/03/02 03:06:11;;;;;;;15.20;8.73;;;;;;;3.43;53.51;100772.00;5006278;28;20476;-85
2022/03/02 03:08:38;;;;;;;14.80;7.75;;;;;;;3.41;53.20;100764.22;5015994;28;20037;-86
2022/03/02 03:11:05;;;;;;;14.40;7.63;;;;;;;3.41;53.42;100771.22;5020061;28;20423;-86
2022/03/02 03:13:32;;;;;;;11.68;7.03;;;;;;;3.40;53.50;100759.88;5005128;28;20040;-86
2022/03/02 03:15:59;;;;;;;11.40;6.97;;;;;;;3.39;53.21;100768.66;5040341;28;20562;-86
2022/03/02 03:18:27;;;;;;;14.23;8.00;;;;;;;3.39;53.12;100758.16;5019007;28;20063;-86
2022/03/02 03:20:54;;;;;;;15.18;8.35;;;;;;;3.38;53.24;100756.44;4990685;28;20048;-85
2022/03/02 03:23:21;;;;;;;15.88;8.43;;;;;;;3.38;53.26;100758.22;5014641;28;20052;-86
2022/03/02 03:25:47;;;;;;;14.32;8.75;;;;;;;3.36;53.13;100752.19;5015382;28;20052;-86
2022/03/02 03:28:14;;;;;;;14.07;8.60;;;;;;;3.32;53.10;100748.00;5021899;28;20116;-85
2022/03/02 03:30:41;;;;;;;13.50;7.63;;;;;;;3.30;52.99;100753.31;5027030;28;20660;-85
2022/03/02 03:33:08;;;;;;;14.52;8.07;;;;;;;3.26;53.08;100746.50;5027089;28;20064;-85
2022/03/02 03:35:35;;;;;;;15.05;8.60;;;;;;;3.24;53.46;100757.06;5010129;28;20045;-85
2022/03/02 03:38:01;;;;;;;16.63;9.35;;;;;;;3.23;53.53;100749.25;5017413;28;20044;-85
2022/03/02 03:40:28;;;;;;;16.42;8.55;;;;;;;3.23;53.66;100749.25;5034935;28;20047;-85
2022/03/02 03:42:56;;;;;;;13.75;8.20;;;;;;;3.22;53.65;100752.78;5006419;28;20040;-85
2022/03/02 03:45:23;;;;;;;13.93;7.78;;;;;;;3.20;53.77;100754.63;5027602;28;20497;-85
2022/03/02 03:47:50;;;;;;;15.30;9.07;;;;;;;3.19;53.97;100743.28;5004736;28;20568;-85
2022/03/02 03:50:17;;;;;;;12.18;7.38;;;;;;;3.20;53.70;100752.00;5015726;28;20499;-85
2022/03/02 03:52:44;;;;;;;11.63;7.60;;;;;;;3.19;53.99;100750.31;5006390;28;20423;-85
2022/03/02 03:55:11;;;;;;;13.32;7.60;;;;;;;3.18;53.86;100740.72;5007823;28;20048;-86
2022/03/02 03:57:38;;;;;;;15.65;8.43;;;;;;;3.16;53.67;100745.19;5026140;28;20488;-85
2022/03/02 04:00:13;;;;;;;15.23;7.72;;;;;;;3.14;53.46;100750.50;5005178;28;20409;-86
2022/03/02 04:02:40;;;;;;;14.80;7.72;;;;;;;3.15;52.91;100748.72;4977390;28;20052;-86
2022/03/02 04:05:08;;;;;;;13.65;7.78;;;;;;;3.10;53.12;100745.44;5010609;28;20485;-84
2022/03/02 04:07:36;;;;;;;11.43;6.68;;;;;;;3.07;52.99;100741.19;5005946;28;20045;-85
2022/03/02 04:10:07;;;;;;;12.05;7.80;;;;;;;3.07;53.14;100743.81;5022745;28;20126;-85
2022/03/02 04:12:34;;;;;;;14.98;7.65;;;;;;;3.06;53.24;100741.28;5007127;28;20044;-86
2022/03/02 04:15:01;;;;;;;15.57;7.88;;;;;;;3.05;53.55;100737.75;5006829;28;20056;-85
2022/03/02 04:17:28;;;;;;;11.65;7.38;;;;;;;3.03;53.46;100732.59;5007255;28;20053;-86
2022/03/02 04:20:06;;;;;;;13.02;7.68;;;;;;;2.98;53.65;100733.72;5014854;28;20413;-86
2022/03/02 04:26:47;;;;;;;12.00;6.93;;;;;;;2.91;53.82;100721.78;4981590;28;20496;-86
2022/03/02 04:29:15;;;;;;;12.88;7.30;;;;;;;2.94;53.80;100722.50;4988530;28;20037;-84
2022/03/02 04:31:42;;;;;;;12.52;7.35;;;;;;;2.93;53.85;100715.56;5017116;28;20067;-86
2022/03/02 04:34:13;;;;;;;15.00;7.88;;;;;;;2.92;53.80;100718.22;5024237;28;20658;-85
2022/03/02 04:36:40;;;;;;;18.15;8.93;;;;;;;2.91;53.78;100716.53;5017155;28;20063;-85
2022/03/02 04:39:07;;;;;;;16.63;8.30;;;;;;;2.88;53.95;100716.66;5019722;28;20411;-85
2022/03/02 04:41:34;;;;;;;11.85;7.85;;;;;;;2.87;54.17;100710.53;5019072;28;20045;-86
2022/03/02 04:44:01;;;;;;;20.35;8.35;;;;;;;2.87;53.87;100714.94;5018191;28;20044;-85
2022/03/02 04:46:28;;;;;;;12.25;7.53;;;;;;;2.86;53.93;100708.84;5006187;28;20072;-85
2022/03/02 04:48:54;;;;;;;11.68;7.78;;;;;;;2.86;54.30;100719.34;5007906;28;20616;-86
2022/03/02 04:51:21;;;;;;;16.20;7.97;;;;;;;2.83;54.05;100709.84;5018355;28;20067;-86
2022/03/02 04:53:51;;;;;;;13.23;7.85;;;;;;;2.83;54.33;100706.38;5007807;28;20048;-85
2022/03/02 04:56:18;;;;;;;16.92;8.15;;;;;;;2.80;54.38;100709.97;5009716;28;20053;-85
2022/03/02 04:58:45;;;;;;;13.52;6.88;;;;;;;2.77;54.08;100710.09;5009835;28;20060;-86
2022/03/02 05:01:12;;;;;;;13.73;8.18;;;;;;;2.78;54.17;100710.97;5028656;28;20722;-87
2022/03/02 05:03:39;;;;;;;11.65;7.20;;;;;;;2.76;54.52;100708.38;5007447;28;20360;-87
2022/03/02 05:06:06;;;;;;;13.90;7.90;;;;;;;2.76;54.53;100711.00;5020464;28;20040;-87
2022/03/02 05:08:33;;;;;;;12.32;7.38;;;;;;;2.73;54.68;100703.28;5016601;28;20041;-85
2022/03/02 05:10:59;;;;;;;13.05;7.15;;;;;;;2.73;54.50;100705.91;5009171;28;20406;-85
2022/03/02 05:13:26;;;;;;;12.32;7.57;;;;;;;2.72;54.91;100701.59;5035292;28;20456;-85
2022/03/02 05:15:53;;;;;;;13.70;8.18;;;;;;;2.71;54.68;100704.25;4995562;28;20560;-85
2022/03/02 05:18:20;;;;;;;12.77;7.53;;;;;;;2.69;54.68;100706.94;4991876;28;20194;-85
2022/03/02 05:20:48;;;;;;;12.52;8.23;;;;;;;2.68;54.49;100710.47;5015495;28;20516;-88
2022/03/02 05:23:15;;;;;;;16.60;8.13;;;;;;;2.66;54.56;100696.56;5035565;28;20045;-88
2022/03/02 05:25:43;;;;;;;15.20;8.65;;;;;;;2.66;54.79;100706.22;5016829;28;20514;-87
2022/03/02 05:28:10;;;;;;;16.50;10.35;;;;;;;2.63;54.60;100704.56;5019970;28;20051;-88
2022/03/02 05:30:37;;;;;;;12.82;8.38;;;;;;;2.61;55.05;100699.38;5022763;28;20463;-87
2022/03/02 05:33:03;;;;;;;15.18;9.68;;;;;;;2.61;54.99;100703.78;5011998;28;20060;-91
2022/03/02 05:35:30;;;;;;;13.70;8.73;;;;;;;2.61;55.25;100699.38;5036138;28;20068;-89
2022/03/02 05:37:57;;;;;;;17.67;9.20;;;;;;;2.60;55.35;100702.09;5036458;28;20408;-89
2022/03/02 05:40:24;;;;;;;15.55;8.30;;;;;;;2.60;55.30;100699.47;5032362;28;20053;-87
2022/03/02 05:42:55;;;;;;;12.50;7.82;;;;;;;2.58;55.14;100696.91;5016636;28;20056;-89
2022/03/02 05:45:22;;;;;;;12.98;7.43;;;;;;;2.58;55.33;100682.94;5025813;28;20119;-90
2022/03/02 05:47:48;;;;;;;14.35;7.97;;;;;;;2.58;55.45;100681.16;5032573;28;20051;-89
2022/03/02 05:50:15;;;;;;;13.80;7.50;;;;;;;2.59;55.28;100677.63;5022552;28;20102;-88
2022/03/02 05:52:42;;;;;;;16.20;7.97;;;;;;;2.59;55.16;100677.63;5050650;28;20041;-89
2022/03/02 05:55:08;;;;;;;11.90;7.80;;;;;;;2.59;55.34;100667.13;5053840;28;20049;-89
2022/03/02 05:57:36;;;;;;;21.20;8.20;;;;;;;2.59;55.58;100672.38;5017578;28;20046;-85
2022/03/02 06:00:05;;;;;;;13.40;8.20;;;;;;;2.59;55.33;100675.00;5039384;28;20120;-89
2022/03/02 06:02:32;;;;;;;11.77;6.60;;;;;;;2.58;55.50;100661.97;5022354;28;20041;-89
2022/03/02 06:04:59;;;;;;;11.88;7.97;;;;;;;2.59;55.63;100663.66;5025027;28;20475;-89
2022/03/02 06:07:26;;;;;;;13.63;6.90;;;;;;;2.58;55.50;100672.44;5055553;28;20053;-89
2022/03/02 06:09:53;;;;;;;14.57;8.00;;;;;;;2.56;55.36;100661.16;5026204;28;20055;-89
2022/03/02 06:12:20;;;;;;;15.55;7.78;;;;;;;2.55;55.67;100669.97;5039892;28;20043;-89
2022/03/02 06:14:46;;;;;;;13.73;7.75;;;;;;;2.53;55.80;100670.03;5024873;28;20045;-89
2022/03/02 06:17:13;;;;;;;15.40;7.95;;;;;;;2.53;55.89;100667.41;5017854;28;20408;-89
2022/03/02 06:19:41;;;;;;;11.90;7.65;;;;;;;2.53;55.69;100674.41;5053826;28;20387;-89
2022/03/02 06:22:09;;;;;;;12.15;7.00;;;;;;;2.53;55.61;100669.16;5034199;28;20051;-89
2022/03/02 06:24:36;;;;;;;11.23;7.47;;;;;;;2.52;55.73;100683.19;5022143;28;20040;-88
2022/03/02 06:27:03;;;;;;;12.35;7.28;;;;;;;2.52;55.62;100677.94;5033930;28;20045;-89
2022/03/02 06:29:30;;;;;;;13.23;8.05;;;;;;;2.53;55.69;100682.28;5051207;28;20052;-89
2022/03/02 06:31:57;;;;;;;15.02;7.75;;;;;;;2.52;56.08;100686.69;5031997;28;20055;-89
2022/03/02 06:34:24;;;;;;;13.05;7.63;;;;;;;2.52;55.75;100691.91;5053249;28;20049;-89
2022/03/02 06:36:51;;;;;;;14.00;8.38;;;;;;;2.51;55.82;100700.69;5031756;28;20102;-89
2022/03/02 06:39:20;;;;;;;13.48;7.70;;;;;;;2.50;55.85;100700.75;5052256;28;20045;-89
2022/03/02 06:42:09;;;;;;;15.93;7.80;;;;;;;2.48;56.24;100706.06;5022539;28;20048;-89
2022/03/02 06:44:45;;;;;;;14.98;7.90;;;;;;;2.47;56.13;100713.97;5037450;28;20415;-89
2022/03/02 06:47:13;;;;;;;16.15;8.05;;;;;;;2.49;55.60;100712.16;5036333;28;20052;-86
2022/03/02 06:49:58;;;;;;;15.75;7.95;;;;;;;2.44;55.71;100717.56;5016628;28;20051;-89
2022/03/02 06:52:32;;;;;;;21.55;10.30;;;;;;;2.41;55.85;100715.09;5023157;28;20053;-89
2022/03/02 06:55:02;;;;;;;23.98;9.65;;;;;;;2.45;55.82;100708.81;5031327;28;20459;-89
2022/03/02 06:57:29;;;;;;;17.35;9.20;;;;;;;2.43;56.18;100712.41;5022660;28;20055;-89
2022/03/02 07:00:01;;;;;;;23.33;9.93;;;;;;;2.42;56.55;100701.09;5028631;28;20060;-88
2022/03/02 07:02:38;;;;;;;22.00;10.33;;;;;;;2.39;56.76;100701.19;5023066;28;20515;-89
2022/03/02 07:05:08;;;;;;;19.70;10.85;;;;;;;2.41;56.79;100712.47;4995458;28;20946;-88
2022/03/02 07:07:36;;;;;;;16.40;9.40;;;;;;;2.45;56.61;100708.81;5034061;28;20049;-82
2022/03/02 07:10:05;;;;;;;21.35;10.40;;;;;;;2.46;56.90;100704.41;5024849;28;20045;-89
2022/03/02 07:12:32;;;;;;;20.60;11.05;;;;;;;2.46;56.97;100709.66;5050483;28;20046;-89
2022/03/02 07:14:59;;;;;;;20.60;10.30;;;;;;;2.45;57.01;100716.69;5006679;28;20567;-88
2022/03/02 07:17:27;;;;;;;20.10;10.85;;;;;;;2.46;56.91;100707.88;5021864;28;20056;-87
2022/03/02 07:19:53;;;;;;;19.35;11.15;;;;;;;2.47;57.43;100703.50;5021136;28;20496;-89
2022/03/02 07:22:22;;;;;;;22.45;11.00;;;;;;;2.48;57.32;100703.44;5017085;28;20566;-89
2022/03/02 07:24:54;;;;;;;16.77;9.80;;;;;;;2.48;57.48;100710.44;5035531;28;20033;-89
2022/03/02 07:27:21;;;;;;;27.73;10.35;;;;;;;2.50;57.46;100721.75;5034123;28;20110;-89
2022/03/02 07:29:53;;;;;;;19.38;10.68;;;;;;;2.50;57.74;100711.25;5022319;28;20499;-88
2022/03/02 07:32:25;;;;;;;15.98;9.23;;;;;;;2.51;57.05;100718.19;5008111;28;20047;-89
2022/03/02 07:34:58;;;;;;;19.70;10.20;;;;;;;2.51;57.21;100715.56;5041063;28;20103;-89
2022/03/02 07:37:27;;;;;;;15.07;8.57;;;;;;;2.51;57.37;100702.47;5041586;28;20044;-89
2022/03/02 07:39:54;;;;;;;14.60;8.30;;;;;;;2.52;56.68;100699.78;4991295;28;20193;-89
2022/03/02 07:42:20;;;;;;;17.60;7.55;;;;;;;2.54;56.54;100700.53;5024692;28;20053;-88
2022/03/02 07:44:49;;;;;;;12.55;7.75;;;;;;;2.56;55.95;100690.00;5019535;28;20069;-89
2022/03/02 07:47:17;;;;;;;13.73;8.07;;;;;;;2.58;55.67;100689.03;5000464;28;20056;-89
2022/03/02 07:49:45;;;;;;;14.77;8.18;;;;;;;2.59;55.80;100695.13;5019434;28;20060;-89
2022/03/02 07:52:14;;;;;;;16.55;7.85;;;;;;;2.69;55.16;100688.56;5033964;28;20056;-88
2022/03/02 07:54:42;;;;;;;17.25;8.43;;;;;;;2.62;55.18;100695.03;5036223;28;20048;-87
2022/03/02 07:57:10;;;;;;;15.35;7.65;;;;;;;2.60;55.33;100687.19;5034359;28;20094;-89
2022/03/02 07:59:40;;;;;;;20.13;8.13;;;;;;;2.58;54.92;100682.94;5037937;28;20550;-89
2022/03/02 08:02:09;;;;;;;17.30;8.23;;;;;;;2.60;55.27;100686.34;5020305;28;20668;-89
2022/03/02 08:04:37;;;;;;;15.95;8.80;;;;;;;2.64;55.51;100692.31;5015256;28;20131;-89
2022/03/02 08:07:04;;;;;;;14.07;8.15;;;;;;;2.64;55.59;100690.53;5022295;28;20044;-89
2022/03/02 08:09:32;;;;;;;15.20;7.38;;;;;;;2.66;55.30;100701.81;5032437;28;20144;-89
2022/03/02 08:12:00;;;;;;;17.52;8.20;;;;;;;2.71;54.33;100701.63;5007679;28;20476;-89
2022/03/02 08:14:28;;;;;;;13.65;7.18;;;;;;;2.61;54.59;100695.91;5021818;28;20037;-89
2022/03/02 08:16:55;;;;;;;16.20;7.35;;;;;;;2.61;54.85;100698.53;5022412;28;20044;-87
2022/03/02 08:19:23;;;;;;;17.73;8.18;;;;;;;2.61;54.46;100693.28;5020939;28;20729;-89
2022/03/02 08:22:02;;;;;;;12.57;7.45;;;;;;;2.60;54.76;100692.44;5032899;28;20061;-89
2022/03/02 08:24:29;;;;;;;12.63;7.68;;;;;;;2.66;54.75;100680.00;4998862;28;20053;-89
2022/03/02 08:27:02;;;;;;;12.50;8.02;;;;;;;2.66;54.53;100680.00;5024249;28;20048;-87
2022/03/02 08:29:31;;;;;;;13.57;8.13;;;;;;;2.69;54.32;100680.72;5030195;28;20377;-89
2022/03/02 08:31:59;;;;;;;13.55;7.05;;;;;;;2.65;54.27;100683.56;5009959;28;20467;-89
2022/03/02 08:34:27;;;;;;;15.75;7.80;;;;;;;2.67;54.47;100693.06;5017114;28;20060;-90
2022/03/02 08:36:54;;;;;;;13.02;7.55;;;;;;;2.64;54.37;100687.06;5016600;28;20049;-89
2022/03/02 08:39:22;;;;;;;17.02;8.02;;;;;;;2.67;54.54;100679.06;5034979;28;20045;-88
2022/03/02 08:41:49;;;;;;;14.55;7.65;;;;;;;2.70;54.18;100685.06;5032959;28;20044;-89
2022/03/02 08:44:17;;;;;;;12.07;7.97;;;;;;;2.71;54.32;100686.75;5035479;28;20040;-89
2022/03/02 08:46:45;;;;;;;12.48;7.03;;;;;;;2.73;54.57;100678.81;5005645;28;20033;-89
2022/03/02 08:49:13;;;;;;;11.63;6.80;;;;;;;2.77;54.29;100675.13;5032160;28;20048;-88
2022/03/02 08:51:41;;;;;;;15.70;7.97;;;;;;;2.77;54.24;100678.63;5028327;28;20041;-89
2022/03/02 08:54:11;;;;;;;14.18;8.38;;;;;;;2.78;54.21;100675.09;5054229;28;20041;-89
2022/03/02 08:56:38;;;;;;;13.63;7.22;;;;;;;2.77;54.12;100669.88;5049461;28;20044;-89
2022/03/02 08:59:05;;;;;;;12.85;7.00;;;;;;;2.78;54.06;100674.25;5032218;28;20480;-88
2022/03/02 09:01:32;;;;;;;15.30;8.02;;;;;;;2.68;53.88;100667.69;5033363;28;20049;-89
2022/03/02 09:04:00;;;;;;;13.88;8.23;;;;;;;2.69;54.32;100669.38;5017263;28;20107;-90
2022/03/02 09:06:30;;;;;;;13.52;7.72;;;;;;;2.73;54.55;100673.59;5028811;28;20049;-89
2022/03/02 09:08:56;;;;;;;12.48;7.53;;;;;;;2.72;54.55;100664.00;5018496;28;20048;-89
2022/03/02 09:11:23;;;;;;;13.15;7.90;;;;;;;2.70;54.31;100664.06;5055423;28;20052;-89
2022/03/02 09:13:50;;;;;;;13.38;8.05;;;;;;;2.77;54.29;100662.91;5036173;28;20462;-89
2022/03/02 09:16:20;;;;;;;15.18;7.60;;;;;;;2.79;54.49;100668.06;5023494;28;20048;-89
2022/03/02 09:18:47;;;;;;;13.30;7.97;;;;;;;2.82;54.29;100671.44;5019124;28;20041;-89
2022/03/02 09:21:15;;;;;;;14.90;7.95;;;;;;;2.87;54.44;100665.09;5048451;28;20500;-89
2022/03/02 09:23:44;;;;;;;17.00;8.30;;;;;;;2.83;55.01;100667.03;5019231;28;20091;-89
2022/03/02 09:26:16;;;;;;;15.57;7.68;;;;;;;2.85;54.69;100672.19;5017205;28;20044;-88
2022/03/02 09:28:46;;;;;;;13.38;7.82;;;;;;;2.85;54.18;100670.44;5021733;28;20040;-90
2022/03/02 09:31:16;;;;;;;13.38;7.55;;;;;;;2.91;53.80;100664.06;5027604;28;20045;-90
2022/03/02 09:33:48;;;;;;;14.85;8.02;;;;;;;2.90;53.85;100668.47;5052014;28;20052;-89
2022/03/02 09:36:20;;;;;;;15.40;7.75;;;;;;;2.87;53.97;100659.88;5020737;28;20052;-89
2022/03/02 09:38:48;;;;;;;13.63;7.85;;;;;;;2.94;54.23;100651.66;5027732;28;20045;-89
2022/03/02 09:41:28;;;;;;;15.43;7.63;;;;;;;2.94;54.50;100658.69;5020432;28;22312;-82
2022/03/02 09:43:57;;;;;;;12.95;8.20;;;;;;;2.95;54.60;100663.00;5019054;28;20442;-89
2022/03/02 09:46:34;;;;;;;18.75;7.85;;;;;;;2.97;54.60;100666.41;5020524;28;20044;-89
2022/03/02 09:49:09;;;;;;;14.05;7.97;;;;;;;2.88;54.14;100662.44;5026295;28;20064;-89
2022/03/02 09:51:41;;;;;;;15.07;8.20;;;;;;;2.98;53.99;100655.88;5019491;28;20184;-90
2022/03/02 09:54:09;;;;;;;13.18;8.18;;;;;;;2.98;54.16;100671.59;5003856;28;20051;-89
2022/03/02 09:56:36;;;;;;;18.40;7.75;;;;;;;3.03;54.18;100666.16;5042918;28;20048;-89
2022/03/02 09:59:06;;;;;;;11.05;7.57;;;;;;;3.00;54.10;100672.41;5032416;28;20499;-89
2022/03/02 10:01:34;;;;;;;15.07;6.85;;;;;;;3.01;53.97;100663.59;5012001;28;20106;-89
2022/03/02 10:04:13;;;;;;;12.30;7.88;;;;;;;3.10;54.05;100674.59;5031381;28;20043;-88
2022/03/02 10:06:42;;;;;;;13.60;7.50;;;;;;;3.07;53.89;100672.97;4999481;28;20055;-88
2022/03/02 10:09:11;;;;;;;12.85;8.00;;;;;;;3.08;54.15;100668.56;5021432;28;20516;-89
2022/03/02 10:11:41;;;;;;;12.65;8.05;;;;;;;3.27;53.20;100661.59;5024432;28;20484;-89
2022/03/02 10:14:10;;;;;;;14.02;7.22;;;;;;;3.20;53.33;100666.25;5020276;28;20051;-89
2022/03/02 10:16:43;;;;;;;14.20;6.82;;;;;;;3.12;53.65;100663.13;5056197;28;20036;-89
2022/03/02 10:19:31;;;;;;;13.35;7.32;;;;;;;3.11;53.67;100656.16;5009481;28;20049;-89
2022/03/02 10:22:37;;;;;;;16.50;7.82;;;;;;;3.18;54.02;100656.72;5002013;28;20044;-89
2022/03/02 10:25:07;;;;;;;18.83;8.82;;;;;;;3.29;53.82;100648.41;4980432;28;20055;-88
2022/03/02 10:27:46;;;;;;;13.90;8.20;;;;;;;3.25;53.70;100647.66;5023148;28;20127;-88
2022/03/02 10:30:13;;;;;;;12.25;7.53;;;;;;;3.28;53.66;100647.53;5032626;28;20045;-88
2022/03/02 10:32:41;;;;;;;14.18;7.88;;;;;;;3.22;53.65;100648.66;5030414;28;20044;-89
2022/03/02 10:35:10;;;;;;;13.77;7.38;;;;;;;3.20;53.50;100644.41;5013852;28;20040;-89
2022/03/02 10:37:39;;;;;;;12.55;7.85;;;;;;;3.23;53.99;100645.13;5039746;28;20467;-89
2022/03/02 10:40:16;;;;;;;10.77;7.85;;;;;;;3.27;53.92;100643.22;5013903;28;20488;-89
2022/03/02 10:42:47;;;;;;;13.60;7.43;;;;;;;3.29;53.64;100646.63;5042080;28;20040;-90
2022/03/02 10:45:17;;;;;;;11.73;7.15;;;;;;;3.50;53.39;100636.91;5017434;28;20400;-88
2022/03/02 10:48:13;;;;;;;16.85;8.00;;;;;;;3.35;53.58;100629.72;5056370;28;20049;-89
2022/03/02 10:50:41;;;;;;;12.88;8.20;;;;;;;3.45;53.11;100628.38;4948706;28;20036;-89
2022/03/02 10:53:13;;;;;;;12.63;7.88;;;;;;;3.46;53.15;100628.34;5034418;28;20037;-89
2022/03/02 10:55:46;;;;;;;11.30;6.50;;;;;;;3.45;53.59;100631.84;5022907;28;20041;-90
2022/03/02 10:58:16;;;;;;;14.20;7.70;;;;;;;3.46;53.84;100633.59;5023474;28;20044;-90
2022/03/02 11:00:43;;;;;;;16.08;7.93;;;;;;;3.42;52.81;100623.28;5036103;28;20395;-89
2022/03/02 11:03:11;;;;;;;13.73;7.60;;;;;;;3.45;53.29;100626.59;5032322;28;20047;-89
2022/03/02 11:05:38;;;;;;;15.82;7.90;;;;;;;3.41;54.02;100627.69;5032392;28;20036;-88
2022/03/02 11:08:05;;;;;;;12.82;8.23;;;;;;;3.54;53.31;100630.59;5018311;28;20045;-89
2022/03/02 11:10:37;;;;;;;14.00;7.50;;;;;;;3.70;52.48;100626.31;5021626;28;20052;-89
2022/03/02 11:13:11;;;;;;;13.23;7.70;;;;;;;3.45;53.41;100636.25;5021265;28;20052;-89
2022/03/02 11:15:49;;;;;;;10.65;6.80;;;;;;;3.55;53.32;100631.44;4980781;28;20048;-83
2022/03/02 11:18:42;;;;;;;11.40;7.65;;;;;;;3.54;53.22;100627.97;5029014;28;20048;-89
2022/03/02 11:21:20;;;;;;;18.05;7.60;;;;;;;3.63;53.16;100632.78;4999303;28;20451;-89
2022/03/02 11:23:49;;;;;;;12.15;7.25;;;;;;;3.66;53.12;100626.53;5010951;28;20041;-89
2022/03/02 11:26:24;;;;;;;14.32;8.10;;;;;;;3.64;53.08;100621.38;5020736;28;20037;-89
2022/03/02 11:28:53;;;;;;;13.60;7.40;;;;;;;3.61;53.56;100623.28;4966706;28;20071;-89
2022/03/02 11:31:26;;;;;;;14.82;8.40;;;;;;;3.59;53.30;100612.00;5007516;28;20049;-89
2022/03/02 11:34:22;;;;;;;13.32;7.72;;;;;;;3.51;53.12;100615.00;5022184;28;20059;-89
2022/03/02 11:36:51;;;;;;;15.38;7.45;;;;;;;3.58;53.02;100605.88;4994380;28;20488;-89